sensor_id;sensor_type;location;lat;lon;timestamp;pressure;altitude;pressure_sealevel;temperature;humidity
11124;BME280;5616;42.692;23.312;2022-11-25T00:01:20;94913.41;;;7.40;73.71
11124;BME280;5616;42.692;23.312;2022-11-25T00:03:48;94916.78;;;7.41;74.44
11124;BME280;5616;42.692;23.312;2022-11-25T00:06:16;94916.97;;;7.31;75.10
11124;BME280;5616;42.692;23.312;2022-11-25T00:08:45;94917.09;;;7.38;75.08
11124;BME280;5616;42.692;23.312;2022-11-25T00:11:13;94921.78;;;7.34;74.93
11124;BME280;5616;42.692;23.312;2022-11-25T00:13:40;94918.75;;;7.31;74.33
11124;BME280;5616;42.692;23.312;2022-11-25T00:16:09;94917.94;;;7.30;74.12
11124;BME280;5616;42.692;23.312;2022-11-25T00:18:38;94929.97;;;7.30;74.09
11124;BME280;5616;42.692;23.312;2022-11-25T00:21:06;94928.38;;;7.29;74.50
11124;BME280;5616;42.692;23.312;2022-11-25T00:23:34;94926.94;;;7.34;73.93
11124;BME280;5616;42.692;23.312;2022-11-25T00:26:06;94930.47;;;7.25;75.20
11124;BME280;5616;42.692;23.312;2022-11-25T00:28:33;94925.84;;;7.13;75.70
11124;BME280;5616;42.692;23.312;2022-11-25T00:31:04;94933.38;;;7.06;75.32
11124;BME280;5616;42.692;23.312;2022-11-25T00:33:30;94937.53;;;7.23;74.39
11124;BME280;5616;42.692;23.312;2022-11-25T00:36:00;94939.59;;;7.36;74.13
11124;BME280;5616;42.692;23.312;2022-11-25T00:38:28;94933.31;;;7.47;74.38
11124;BME280;5616;42.692;23.312;2022-11-25T00:40:55;94936.03;;;7.53;74.20
11124;BME280;5616;42.692;23.312;2022-11-25T00:43:35;94937.66;;;7.38;74.31
11124;BME280;5616;42.692;23.312;2022-11-25T00:46:19;94930.59;;;7.40;75.21
11124;BME280;5616;42.692;23.312;2022-11-25T00:48:46;94934.75;;;7.41;75.08
11124;BME280;5616;42.692;23.312;2022-11-25T00:51:14;94936.53;;;7.40;75.00
11124;BME280;5616;42.692;23.312;2022-11-25T00:53:41;94941.69;;;7.32;75.30
11124;BME280;5616;42.692;23.312;2022-11-25T00:56:08;94934.47;;;7.36;75.64
11124;BME280;5616;42.692;23.312;2022-11-25T00:58:42;94941.97;;;7.37;75.54
11124;BME280;5616;42.692;23.312;2022-11-25T01:01:10;94939.41;;;7.46;74.41
11124;BME280;5616;42.692;23.312;2022-11-25T01:03:37;94932.66;;;7.53;73.74
11124;BME280;5616;42.692;23.312;2022-11-25T01:06:06;94935.41;;;7.35;75.51
11124;BME280;5616;42.692;23.312;2022-11-25T01:08:36;94934.63;;;7.34;75.07
11124;BME280;5616;42.692;23.312;2022-11-25T01:11:05;94934.94;;;7.39;75.30
11124;BME280;5616;42.692;23.312;2022-11-25T01:13:32;94934.91;;;7.48;75.21
11124;BME280;5616;42.692;23.312;2022-11-25T01:16:00;94936.53;;;7.32;74.92
11124;BME280;5616;42.692;23.312;2022-11-25T01:18:28;94917.78;;;7.32;74.35
11124;BME280;5616;42.692;23.312;2022-11-25T01:20:55;94939.09;;;7.40;74.08
11124;BME280;5616;42.692;23.312;2022-11-25T01:23:23;94937.97;;;7.35;75.35
11124;BME280;5616;42.692;23.312;2022-11-25T01:25:53;94929.50;;;7.34;74.84
11124;BME280;5616;42.692;23.312;2022-11-25T01:28:19;94928.03;;;7.40;75.51
11124;BME280;5616;42.692;23.312;2022-11-25T01:30:46;94937.63;;;7.46;74.02
11124;BME280;5616;42.692;23.312;2022-11-25T01:33:13;94930.09;;;7.45;74.20
11124;BME280;5616;42.692;23.312;2022-11-25T01:35:40;94933.94;;;7.49;73.92
11124;BME280;5616;42.692;23.312;2022-11-25T01:38:07;94919.94;;;7.51;74.64
11124;BME280;5616;42.692;23.312;2022-11-25T01:40:34;94914.00;;;7.51;74.29
11124;BME280;5616;42.692;23.312;2022-11-25T01:43:02;94921.72;;;7.51;73.70
11124;BME280;5616;42.692;23.312;2022-11-25T01:45:34;94911.81;;;7.48;73.50
11124;BME280;5616;42.692;23.312;2022-11-25T01:48:05;94905.81;;;7.55;74.18
11124;BME280;5616;42.692;23.312;2022-11-25T01:50:35;94902.91;;;7.66;74.38
11124;BME280;5616;42.692;23.312;2022-11-25T01:53:05;94896.25;;;7.72;73.23
11124;BME280;5616;42.692;23.312;2022-11-25T01:55:37;94896.91;;;7.74;72.43
11124;BME280;5616;42.692;23.312;2022-11-25T01:58:09;94892.25;;;7.69;72.76
11124;BME280;5616;42.692;23.312;2022-11-25T02:00:38;94900.16;;;7.68;71.57
11124;BME280;5616;42.692;23.312;2022-11-25T02:03:06;94898.69;;;7.73;72.29
11124;BME280;5616;42.692;23.312;2022-11-25T02:05:39;94918.13;;;7.68;71.86
11124;BME280;5616;42.692;23.312;2022-11-25T02:08:08;94912.69;;;7.63;72.28
11124;BME280;5616;42.692;23.312;2022-11-25T02:10:36;94916.56;;;7.59;71.17
11124;BME280;5616;42.692;23.312;2022-11-25T02:13:04;94920.13;;;7.50;71.39
11124;BME280;5616;42.692;23.312;2022-11-25T02:15:33;94921.38;;;7.62;72.19
11124;BME280;5616;42.692;23.312;2022-11-25T02:18:02;94914.13;;;7.65;71.65
11124;BME280;5616;42.692;23.312;2022-11-25T02:20:29;94924.25;;;7.59;71.86
11124;BME280;5616;42.692;23.312;2022-11-25T02:23:01;94924.72;;;7.70;71.62
11124;BME280;5616;42.692;23.312;2022-11-25T02:25:32;94919.06;;;7.75;71.40
11124;BME280;5616;42.692;23.312;2022-11-25T02:28:05;94923.22;;;7.84;70.78
11124;BME280;5616;42.692;23.312;2022-11-25T02:30:32;94926.19;;;7.65;71.01
11124;BME280;5616;42.692;23.312;2022-11-25T02:33:00;94927.59;;;7.67;69.51
11124;BME280;5616;42.692;23.312;2022-11-25T02:35:30;94937.75;;;7.69;70.27
11124;BME280;5616;42.692;23.312;2022-11-25T02:38:02;94935.19;;;7.61;69.98
11124;BME280;5616;42.692;23.312;2022-11-25T02:40:33;94928.44;;;7.60;70.44
11124;BME280;5616;42.692;23.312;2022-11-25T02:43:00;94928.44;;;7.60;69.79
11124;BME280;5616;42.692;23.312;2022-11-25T02:45:34;94940.34;;;7.61;70.49
11124;BME280;5616;42.692;23.312;2022-11-25T02:48:05;94929.91;;;7.54;70.47
11124;BME280;5616;42.692;23.312;2022-11-25T02:50:31;94935.25;;;7.45;70.18
11124;BME280;5616;42.692;23.312;2022-11-25T02:52:58;94931.38;;;7.49;70.87
11124;BME280;5616;42.692;23.312;2022-11-25T02:55:25;94924.63;;;7.56;69.46
11124;BME280;5616;42.692;23.312;2022-11-25T02:57:53;94932.69;;;7.45;71.35
11124;BME280;5616;42.692;23.312;2022-11-25T03:00:22;94936.69;;;7.47;71.34
11124;BME280;5616;42.692;23.312;2022-11-25T03:02:52;94940.50;;;7.51;70.17
11124;BME280;5616;42.692;23.312;2022-11-25T03:05:20;94937.63;;;7.46;70.73
11124;BME280;5616;42.692;23.312;2022-11-25T03:07:46;94937.97;;;7.35;71.65
11124;BME280;5616;42.692;23.312;2022-11-25T03:10:15;94941.34;;;7.44;71.45
11124;BME280;5616;42.692;23.312;2022-11-25T03:12:43;94937.50;;;7.39;72.47
11124;BME280;5616;42.692;23.312;2022-11-25T03:15:11;94941.88;;;7.15;73.51
11124;BME280;5616;42.692;23.312;2022-11-25T03:17:38;94942.84;;;7.14;74.18
11124;BME280;5616;42.692;23.312;2022-11-25T03:20:06;94942.84;;;7.14;72.76
11124;BME280;5616;42.692;23.312;2022-11-25T03:22:33;94941.38;;;7.19;73.51
11124;BME280;5616;42.692;23.312;2022-11-25T03:25:03;94953.28;;;7.04;75.11
11124;BME280;5616;42.692;23.312;2022-11-25T03:27:30;94945.56;;;7.12;74.05
11124;BME280;5616;42.692;23.312;2022-11-25T03:29:57;94954.91;;;7.05;74.49
11124;BME280;5616;42.692;23.312;2022-11-25T03:32:27;94954.91;;;6.97;76.07
11124;BME280;5616;42.692;23.312;2022-11-25T03:34:54;94951.66;;;7.03;74.97
11124;BME280;5616;42.692;23.312;2022-11-25T03:37:21;94954.59;;;7.08;75.92
11124;BME280;5616;42.692;23.312;2022-11-25T03:39:48;94961.16;;;7.11;75.84
11124;BME280;5616;42.692;23.312;2022-11-25T03:42:15;94955.72;;;7.06;75.82
11124;BME280;5616;42.692;23.312;2022-11-25T03:44:42;94970.94;;;7.07;76.17
11124;BME280;5616;42.692;23.312;2022-11-25T03:47:08;94971.44;;;7.03;75.71
11124;BME280;5616;42.692;23.312;2022-11-25T03:49:37;94972.06;;;6.97;77.33
11124;BME280;5616;42.692;23.312;2022-11-25T03:52:04;94972.56;;;7.00;77.36
11124;BME280;5616;42.692;23.312;2022-11-25T03:54:30;94971.75;;;6.92;78.07
11124;BME280;5616;42.692;23.312;2022-11-25T03:57:16;94973.03;;;6.88;77.75
11124;BME280;5616;42.692;23.312;2022-11-25T03:59:43;94989.84;;;6.90;78.35
11124;BME280;5616;42.692;23.312;2022-11-25T04:02:11;94988.28;;;6.89;77.53
11124;BME280;5616;42.692;23.312;2022-11-25T04:04:40;94999.03;;;6.85;77.61
11124;BME280;5616;42.692;23.312;2022-11-25T04:07:07;94998.03;;;6.77;79.13
11124;BME280;5616;42.692;23.312;2022-11-25T04:09:34;95001.41;;;6.78;78.87
11124;BME280;5616;42.692;23.312;2022-11-25T04:12:04;95003.50;;;6.74;78.79
11124;BME280;5616;42.692;23.312;2022-11-25T04:14:56;95002.53;;;6.75;78.41
11124;BME280;5616;42.692;23.312;2022-11-25T04:17:23;95007.50;;;6.77;78.74
11124;BME280;5616;42.692;23.312;2022-11-25T04:19:52;94999.97;;;6.75;78.48
11124;BME280;5616;42.692;23.312;2022-11-25T04:22:18;95000.13;;;6.58;80.18
11124;BME280;5616;42.692;23.312;2022-11-25T04:24:47;94996.75;;;6.65;79.94
11124;BME280;5616;42.692;23.312;2022-11-25T04:27:18;95008.78;;;6.73;79.25
11124;BME280;5616;42.692;23.312;2022-11-25T04:29:46;95010.72;;;6.63;79.44
11124;BME280;5616;42.692;23.312;2022-11-25T04:32:14;95018.88;;;6.74;79.71
11124;BME280;5616;42.692;23.312;2022-11-25T04:34:40;95022.13;;;6.76;78.05
11124;BME280;5616;42.692;23.312;2022-11-25T04:37:09;95022.44;;;6.82;79.54
11124;BME280;5616;42.692;23.312;2022-11-25T04:39:39;95018.75;;;6.84;78.71
11124;BME280;5616;42.692;23.312;2022-11-25T04:42:14;95031.72;;;6.83;78.83
11124;BME280;5616;42.692;23.312;2022-11-25T04:45:05;95037.03;;;6.81;78.22
11124;BME280;5616;42.692;23.312;2022-11-25T04:47:32;95037.66;;;6.83;78.71
11124;BME280;5616;42.692;23.312;2022-11-25T04:49:59;95033.00;;;6.78;78.49
11124;BME280;5616;42.692;23.312;2022-11-25T04:52:27;95045.22;;;6.85;78.73
11124;BME280;5616;42.692;23.312;2022-11-25T04:54:54;95043.59;;;6.84;78.14
11124;BME280;5616;42.692;23.312;2022-11-25T04:57:21;95057.88;;;6.86;78.14
11124;BME280;5616;42.692;23.312;2022-11-25T04:59:49;95067.31;;;6.77;78.24
11124;BME280;5616;42.692;23.312;2022-11-25T05:02:16;95069.75;;;6.79;78.13
11124;BME280;5616;42.692;23.312;2022-11-25T05:04:53;95076.31;;;6.82;78.43
11124;BME280;5616;42.692;23.312;2022-11-25T05:07:24;95076.47;;;6.80;78.97
11124;BME280;5616;42.692;23.312;2022-11-25T05:09:55;95080.81;;;6.88;77.98
11124;BME280;5616;42.692;23.312;2022-11-25T05:12:33;95090.28;;;6.87;77.53
11124;BME280;5616;42.692;23.312;2022-11-25T05:15:04;95087.22;;;6.75;77.75
11124;BME280;5616;42.692;23.312;2022-11-25T05:17:35;95084.28;;;6.62;78.42
11124;BME280;5616;42.692;23.312;2022-11-25T05:20:02;95096.97;;;6.72;78.54
11124;BME280;5616;42.692;23.312;2022-11-25T05:22:32;95091.38;;;6.68;78.42
11124;BME280;5616;42.692;23.312;2022-11-25T05:25:01;95105.75;;;6.61;78.06
11124;BME280;5616;42.692;23.312;2022-11-25T05:27:30;95102.41;;;6.61;78.45
11124;BME280;5616;42.692;23.312;2022-11-25T05:30:01;95110.28;;;6.67;77.62
11124;BME280;5616;42.692;23.312;2022-11-25T05:32:28;95115.91;;;6.71;77.50
11124;BME280;5616;42.692;23.312;2022-11-25T05:34:57;95115.75;;;6.81;76.27
11124;BME280;5616;42.692;23.312;2022-11-25T05:37:24;95124.38;;;8.80;99.30
11124;BME280;5616;42.692;23.312;2022-11-25T05:40:02;95130.53;;;8.40;94.73
11124;BME280;5616;42.692;23.312;2022-11-25T05:42:48;95139.75;;;8.02;76.32
11124;BME280;5616;42.692;23.312;2022-11-25T05:45:16;95133.97;;;7.92;73.28
11124;BME280;5616;42.692;23.312;2022-11-25T05:47:43;95138.00;;;7.78;72.84
11124;BME280;5616;42.692;23.312;2022-11-25T05:50:14;95137.19;;;7.70;72.75
11124;BME280;5616;42.692;23.312;2022-11-25T05:53:00;95141.53;;;7.61;71.71
11124;BME280;5616;42.692;23.312;2022-11-25T05:55:28;95140.56;;;7.62;72.75
11124;BME280;5616;42.692;23.312;2022-11-25T05:57:57;95144.44;;;7.58;72.86
11124;BME280;5616;42.692;23.312;2022-11-25T06:00:24;95140.91;;;7.51;72.17
11124;BME280;5616;42.692;23.312;2022-11-25T06:02:52;95141.69;;;7.44;72.80
11124;BME280;5616;42.692;23.312;2022-11-25T06:05:20;95144.44;;;7.42;72.76
11124;BME280;5616;42.692;23.312;2022-11-25T06:07:49;95141.06;;;7.42;71.99
11124;BME280;5616;42.692;23.312;2022-11-25T06:10:16;95157.28;;;7.42;72.16
11124;BME280;5616;42.692;23.312;2022-11-25T06:12:45;95168.00;;;7.37;72.11
11124;BME280;5616;42.692;23.312;2022-11-25T06:15:13;95164.50;;;7.47;72.01
11124;BME280;5616;42.692;23.312;2022-11-25T06:17:40;95170.28;;;7.40;71.69
11124;BME280;5616;42.692;23.312;2022-11-25T06:20:11;95173.34;;;7.52;71.56
11124;BME280;5616;42.692;23.312;2022-11-25T06:22:38;95179.28;;;7.53;72.15
11124;BME280;5616;42.692;23.312;2022-11-25T06:25:06;95185.69;;;7.57;71.25
11124;BME280;5616;42.692;23.312;2022-11-25T06:27:35;95189.41;;;7.62;72.53
11124;BME280;5616;42.692;23.312;2022-11-25T06:30:05;95197.09;;;7.62;70.71
11124;BME280;5616;42.692;23.312;2022-11-25T06:32:32;95203.22;;;7.69;70.05
11124;BME280;5616;42.692;23.312;2022-11-25T06:35:12;95201.44;;;7.70;71.50
11124;BME280;5616;42.692;23.312;2022-11-25T06:37:51;95203.38;;;7.76;70.02
11124;BME280;5616;42.692;23.312;2022-11-25T06:40:18;95205.78;;;7.85;70.23
11124;BME280;5616;42.692;23.312;2022-11-25T06:42:44;95198.25;;;7.84;69.42
11124;BME280;5616;42.692;23.312;2022-11-25T06:45:13;95205.97;;;7.92;70.21
11124;BME280;5616;42.692;23.312;2022-11-25T06:47:39;95208.22;;;7.95;68.91
11124;BME280;5616;42.692;23.312;2022-11-25T06:50:07;95210.78;;;8.03;69.11
11124;BME280;5616;42.692;23.312;2022-11-25T06:52:34;95206.72;;;8.09;69.49
11124;BME280;5616;42.692;23.312;2022-11-25T06:55:01;95217.38;;;7.97;69.21
11124;BME280;5616;42.692;23.312;2022-11-25T06:57:27;95215.25;;;8.01;70.08
11124;BME280;5616;42.692;23.312;2022-11-25T06:59:54;95219.63;;;8.00;69.92
11124;BME280;5616;42.692;23.312;2022-11-25T07:02:22;95212.06;;;8.07;69.63
11124;BME280;5616;42.692;23.312;2022-11-25T07:04:49;95225.84;;;8.14;68.49
11124;BME280;5616;42.692;23.312;2022-11-25T07:07:16;95217.19;;;8.15;69.01
11124;BME280;5616;42.692;23.312;2022-11-25T07:09:43;95221.06;;;8.11;70.14
11124;BME280;5616;42.692;23.312;2022-11-25T07:12:09;95227.66;;;8.22;68.50
11124;BME280;5616;42.692;23.312;2022-11-25T07:14:37;95227.81;;;8.28;68.73
11124;BME280;5616;42.692;23.312;2022-11-25T07:17:04;95234.38;;;8.39;68.63
11124;BME280;5616;42.692;23.312;2022-11-25T07:19:32;95227.47;;;8.15;68.87
11124;BME280;5616;42.692;23.312;2022-11-25T07:22:00;95231.81;;;8.23;67.68
11124;BME280;5616;42.692;23.312;2022-11-25T07:24:27;95230.38;;;8.28;68.76
11124;BME280;5616;42.692;23.312;2022-11-25T07:26:54;95246.31;;;8.40;67.60
11124;BME280;5616;42.692;23.312;2022-11-25T07:29:20;95234.69;;;8.44;67.60
11124;BME280;5616;42.692;23.312;2022-11-25T07:31:47;95237.09;;;8.53;67.70
11124;BME280;5616;42.692;23.312;2022-11-25T07:34:16;95241.78;;;8.50;67.33
11124;BME280;5616;42.692;23.312;2022-11-25T07:36:46;95235.19;;;8.47;67.52
11124;BME280;5616;42.692;23.312;2022-11-25T07:39:14;95241.94;;;8.32;68.39
11124;BME280;5616;42.692;23.312;2022-11-25T07:41:41;95234.56;;;8.13;69.84
11124;BME280;5616;42.692;23.312;2022-11-25T07:44:10;95241.28;;;8.14;69.16
11124;BME280;5616;42.692;23.312;2022-11-25T07:46:58;95250.44;;;8.17;68.46
11124;BME280;5616;42.692;23.312;2022-11-25T07:49:24;95250.31;;;8.10;69.40
11124;BME280;5616;42.692;23.312;2022-11-25T07:51:54;95255.13;;;7.97;68.98
11124;BME280;5616;42.692;23.312;2022-11-25T07:54:24;95249.66;;;8.00;69.01
11124;BME280;5616;42.692;23.312;2022-11-25T07:56:51;95247.41;;;7.81;70.57
11124;BME280;5616;42.692;23.312;2022-11-25T07:59:19;95249.03;;;7.90;68.97
11124;BME280;5616;42.692;23.312;2022-11-25T08:01:48;95256.56;;;7.91;68.99
11124;BME280;5616;42.692;23.312;2022-11-25T08:04:15;95263.78;;;7.96;69.32
11124;BME280;5616;42.692;23.312;2022-11-25T08:06:43;95262.84;;;7.97;70.07
11124;BME280;5616;42.692;23.312;2022-11-25T08:09:15;95267.81;;;7.98;68.72
11124;BME280;5616;42.692;23.312;2022-11-25T08:11:43;95267.50;;;8.01;68.67
11124;BME280;5616;42.692;23.312;2022-11-25T08:14:11;95271.69;;;7.94;70.65
11124;BME280;5616;42.692;23.312;2022-11-25T08:16:38;95262.03;;;8.05;69.37
11124;BME280;5616;42.692;23.312;2022-11-25T08:19:07;95262.19;;;8.19;68.68
11124;BME280;5616;42.692;23.312;2022-11-25T08:21:36;95274.72;;;8.14;69.11
11124;BME280;5616;42.692;23.312;2022-11-25T08:24:03;95275.38;;;8.24;68.83
11124;BME280;5616;42.692;23.312;2022-11-25T08:26:32;95276.97;;;8.25;69.12
11124;BME280;5616;42.692;23.312;2022-11-25T08:29:01;95256.41;;;8.17;68.04
11124;BME280;5616;42.692;23.312;2022-11-25T08:31:30;95272.19;;;8.30;69.01
11124;BME280;5616;42.692;23.312;2022-11-25T08:33:57;95279.25;;;8.36;67.98
11124;BME280;5616;42.692;23.312;2022-11-25T08:36:25;95253.53;;;8.36;68.27
11124;BME280;5616;42.692;23.312;2022-11-25T08:38:55;95274.41;;;8.57;66.83
11124;BME280;5616;42.692;23.312;2022-11-25T08:41:25;95273.91;;;8.62;66.95
11124;BME280;5616;42.692;23.312;2022-11-25T08:43:54;95284.69;;;8.66;66.85
11124;BME280;5616;42.692;23.312;2022-11-25T08:46:24;95281.47;;;8.72;66.36
11124;BME280;5616;42.692;23.312;2022-11-25T08:48:51;95281.47;;;8.72;67.39
11124;BME280;5616;42.692;23.312;2022-11-25T08:51:20;95274.19;;;8.75;66.41
11124;BME280;5616;42.692;23.312;2022-11-25T08:53:47;95275.78;;;8.92;66.92
11124;BME280;5616;42.692;23.312;2022-11-25T08:56:16;95272.03;;;9.03;65.26
11124;BME280;5616;42.692;23.312;2022-11-25T08:58:43;95278.31;;;9.08;65.96
11124;BME280;5616;42.692;23.312;2022-11-25T09:01:12;95278.59;;;9.13;65.79
11124;BME280;5616;42.692;23.312;2022-11-25T09:03:41;95275.00;;;9.22;65.17
11124;BME280;5616;42.692;23.312;2022-11-25T09:06:10;95274.84;;;9.32;64.88
11124;BME280;5616;42.692;23.312;2022-11-25T09:08:38;95274.84;;;9.32;64.04
11124;BME280;5616;42.692;23.312;2022-11-25T09:11:06;95281.28;;;9.28;63.42
11124;BME280;5616;42.692;23.312;2022-11-25T09:13:33;95277.09;;;9.27;64.18
11124;BME280;5616;42.692;23.312;2022-11-25T09:16:00;95285.75;;;9.34;64.13
11124;BME280;5616;42.692;23.312;2022-11-25T09:18:29;95272.59;;;9.29;64.97
11124;BME280;5616;42.692;23.312;2022-11-25T09:20:57;95284.59;;;9.45;65.05
11124;BME280;5616;42.692;23.312;2022-11-25T09:23:24;95280.34;;;9.52;64.52
11124;BME280;5616;42.692;23.312;2022-11-25T09:25:52;95284.94;;;9.64;64.74
11124;BME280;5616;42.692;23.312;2022-11-25T09:28:19;95280.09;;;9.69;64.33
11124;BME280;5616;42.692;23.312;2022-11-25T09:30:46;95285.44;;;9.68;64.29
11124;BME280;5616;42.692;23.312;2022-11-25T09:33:13;95283.69;;;9.60;63.49
11124;BME280;5616;42.692;23.312;2022-11-25T09:35:42;95301.28;;;9.88;62.80
11124;BME280;5616;42.692;23.312;2022-11-25T09:38:09;95296.69;;;9.98;61.73
11124;BME280;5616;42.692;23.312;2022-11-25T09:40:42;95284.75;;;9.97;61.86
11124;BME280;5616;42.692;23.312;2022-11-25T09:43:18;95293.59;;;9.79;62.19
11124;BME280;5616;42.692;23.312;2022-11-25T09:46:33;95297.03;;;9.95;61.85
11124;BME280;5616;42.692;23.312;2022-11-25T09:49:22;95281.22;;;9.98;61.40
11124;BME280;5616;42.692;23.312;2022-11-25T09:52:02;95287.81;;;10.23;60.88
11124;BME280;5616;42.692;23.312;2022-11-25T09:54:35;95287.88;;;10.37;59.72
11124;BME280;5616;42.692;23.312;2022-11-25T09:57:11;95282.78;;;10.29;60.36
11124;BME280;5616;42.692;23.312;2022-11-25T09:59:48;95291.41;;;10.22;60.95
11124;BME280;5616;42.692;23.312;2022-11-25T10:02:20;95286.28;;;10.14;60.91
11124;BME280;5616;42.692;23.312;2022-11-25T10:04:51;95288.66;;;9.93;61.49
11124;BME280;5616;42.692;23.312;2022-11-25T10:07:29;95288.91;;;9.75;61.13
11124;BME280;5616;42.692;23.312;2022-11-25T10:10:03;95283.44;;;9.47;63.07
11124;BME280;5616;42.692;23.312;2022-11-25T10:12:33;95293.47;;;9.42;63.33
11124;BME280;5616;42.692;23.312;2022-11-25T10:15:10;95285.66;;;9.58;62.50
11124;BME280;5616;42.692;23.312;2022-11-25T10:17:42;95283.66;;;9.68;62.72
11124;BME280;5616;42.692;23.312;2022-11-25T10:20:13;95293.59;;;9.79;61.78
11124;BME280;5616;42.692;23.312;2022-11-25T10:22:46;95290.34;;;9.77;61.79
11124;BME280;5616;42.692;23.312;2022-11-25T10:25:15;95288.16;;;9.74;62.25
11124;BME280;5616;42.692;23.312;2022-11-25T10:27:46;95292.88;;;9.85;62.19
11124;BME280;5616;42.692;23.312;2022-11-25T10:30:18;95280.00;;;9.85;61.70
11124;BME280;5616;42.692;23.312;2022-11-25T10:32:50;95275.25;;;9.74;61.27
11124;BME280;5616;42.692;23.312;2022-11-25T10:35:23;95285.34;;;9.53;61.49
11124;BME280;5616;42.692;23.312;2022-11-25T10:37:55;95280.91;;;9.39;60.83
11124;BME280;5616;42.692;23.312;2022-11-25T10:40:24;95272.09;;;9.26;61.27
11124;BME280;5616;42.692;23.312;2022-11-25T10:42:51;95282.78;;;9.14;62.10
11124;BME280;5616;42.692;23.312;2022-11-25T10:45:22;95282.59;;;9.24;62.72
11124;BME280;5616;42.692;23.312;2022-11-25T10:48:08;95277.88;;;9.28;62.08
11124;BME280;5616;42.692;23.312;2022-11-25T10:50:43;95254.91;;;9.18;62.63
11124;BME280;5616;42.692;23.312;2022-11-25T10:53:20;95291.88;;;9.33;62.45
11124;BME280;5616;42.692;23.312;2022-11-25T10:55:59;95289.19;;;9.57;61.05
11124;BME280;5616;42.692;23.312;2022-11-25T10:58:29;95288.16;;;9.74;60.38
11124;BME280;5616;42.692;23.312;2022-11-25T11:01:13;95292.44;;;9.82;60.78
11124;BME280;5616;42.692;23.312;2022-11-25T11:03:40;95298.50;;;10.12;59.48
11124;BME280;5616;42.692;23.312;2022-11-25T11:06:29;95292.06;;;10.16;59.02
11124;BME280;5616;42.692;23.312;2022-11-25T11:08:58;95295.56;;;10.23;59.37
11124;BME280;5616;42.692;23.312;2022-11-25T11:11:25;95292.44;;;10.27;59.06
11124;BME280;5616;42.692;23.312;2022-11-25T11:13:59;95306.16;;;10.28;59.59
11124;BME280;5616;42.692;23.312;2022-11-25T11:16:38;95300.13;;;9.90;61.05
11124;BME280;5616;42.692;23.312;2022-11-25T11:19:19;95298.56;;;9.81;61.39
11124;BME280;5616;42.692;23.312;2022-11-25T11:21:48;95297.13;;;9.78;61.42
11124;BME280;5616;42.692;23.312;2022-11-25T11:24:25;95294.13;;;9.67;62.19
11124;BME280;5616;42.692;23.312;2022-11-25T11:27:05;95292.72;;;9.56;62.41
11124;BME280;5616;42.692;23.312;2022-11-25T11:29:32;95318.94;;;9.37;63.64
11124;BME280;5616;42.692;23.312;2022-11-25T11:32:00;95301.59;;;9.23;63.51
11124;BME280;5616;42.692;23.312;2022-11-25T11:34:54;95309.34;;;9.15;64.57
11124;BME280;5616;42.692;23.312;2022-11-25T11:37:39;95304.94;;;9.32;65.25
11124;BME280;5616;42.692;23.312;2022-11-25T11:40:34;95302.13;;;9.10;64.34
11124;BME280;5616;42.692;23.312;2022-11-25T11:43:15;95318.03;;;9.14;64.74
11124;BME280;5616;42.692;23.312;2022-11-25T11:45:56;95307.66;;;8.83;66.06
11124;BME280;5616;42.692;23.312;2022-11-25T11:48:37;95308.41;;;9.08;65.69
11124;BME280;5616;42.692;23.312;2022-11-25T11:51:13;95305.03;;;9.07;64.34
11124;BME280;5616;42.692;23.312;2022-11-25T11:53:52;95327.56;;;9.13;64.57
11124;BME280;5616;42.692;23.312;2022-11-25T11:56:29;95316.56;;;9.19;64.30
11124;BME280;5616;42.692;23.312;2022-11-25T11:59:21;95311.25;;;9.21;64.99
11124;BME280;5616;42.692;23.312;2022-11-25T12:02:09;95298.69;;;9.26;64.14
11124;BME280;5616;42.692;23.312;2022-11-25T12:04:43;95308.78;;;9.36;63.54
11124;BME280;5616;42.692;23.312;2022-11-25T12:07:16;95304.41;;;9.44;63.94
11124;BME280;5616;42.692;23.312;2022-11-25T12:09:50;95312.78;;;9.38;65.25
11124;BME280;5616;42.692;23.312;2022-11-25T12:12:23;95288.78;;;9.38;64.83
11124;BME280;5616;42.692;23.312;2022-11-25T12:15:02;95312.22;;;9.20;65.64
11124;BME280;5616;42.692;23.312;2022-11-25T12:17:34;95315.09;;;9.25;64.55
11124;BME280;5616;42.692;23.312;2022-11-25T12:20:14;95308.06;;;9.11;64.89
11124;BME280;5616;42.692;23.312;2022-11-25T12:22:49;95301.97;;;9.04;66.59
11124;BME280;5616;42.692;23.312;2022-11-25T12:25:22;95300.97;;;9.13;65.48
11124;BME280;5616;42.692;23.312;2022-11-25T12:27:53;95324.84;;;8.99;66.21
11124;BME280;5616;42.692;23.312;2022-11-25T12:30:27;95321.25;;;9.16;65.53
11124;BME280;5616;42.692;23.312;2022-11-25T12:33:04;95319.00;;;9.21;64.53
11124;BME280;5616;42.692;23.312;2022-11-25T12:35:48;95328.81;;;9.17;66.34
11124;BME280;5616;42.692;23.312;2022-11-25T12:38:24;95324.28;;;9.19;66.58
11124;BME280;5616;42.692;23.312;2022-11-25T12:41:00;95316.22;;;9.22;65.32
11124;BME280;5616;42.692;23.312;2022-11-25T12:43:38;95312.03;;;9.30;64.31
11124;BME280;5616;42.692;23.312;2022-11-25T12:46:17;95310.78;;;9.17;65.22
11124;BME280;5616;42.692;23.312;2022-11-25T12:48:45;95295.19;;;9.19;65.99
11124;BME280;5616;42.692;23.312;2022-11-25T12:51:22;95321.69;;;9.28;65.06
11124;BME280;5616;42.692;23.312;2022-11-25T12:54:01;95304.75;;;9.33;64.55
11124;BME280;5616;42.692;23.312;2022-11-25T12:56:50;95298.16;;;9.31;64.16
11124;BME280;5616;42.692;23.312;2022-11-25T12:59:44;95294.63;;;9.32;64.00
11124;BME280;5616;42.692;23.312;2022-11-25T13:02:34;95292.56;;;9.27;64.10
11124;BME280;5616;42.692;23.312;2022-11-25T13:08:20;95306.94;;;9.13;64.76
11124;BME280;5616;42.692;23.312;2022-11-25T13:11:15;95294.38;;;9.18;63.62
11124;BME280;5616;42.692;23.312;2022-11-25T13:13:50;95310.97;;;9.16;63.29
11124;BME280;5616;42.692;23.312;2022-11-25T13:16:21;95306.16;;;9.05;64.04
11124;BME280;5616;42.692;23.312;2022-11-25T13:18:48;95300.81;;;9.06;64.73
11124;BME280;5616;42.692;23.312;2022-11-25T13:21:17;95301.50;;;9.08;64.78
11124;BME280;5616;42.692;23.312;2022-11-25T13:23:46;95301.50;;;9.00;63.90
11124;BME280;5616;42.692;23.312;2022-11-25T13:32:42;95298.44;;;8.97;63.54
11124;BME280;5616;42.692;23.312;2022-11-25T13:35:33;95317.31;;;8.81;65.18
11124;BME280;5616;42.692;23.312;2022-11-25T13:40:55;95308.81;;;8.73;66.01
11124;BME280;5616;42.692;23.312;2022-11-25T13:43:22;95307.66;;;8.75;64.95